createdAt,value
2018-06-29T00:02:10.810Z,1.50
2018-06-29T00:04:38.438Z,1.57
2018-06-29T00:07:06.516Z,1.80
2018-06-29T00:09:34.146Z,1.50
2018-06-29T00:12:02.284Z,1.60
2018-06-29T00:14:30.269Z,1.63
2018-06-29T00:17:00.222Z,1.60
2018-06-29T00:19:28.223Z,1.70
2018-06-29T00:21:56.460Z,1.77
2018-06-29T00:24:24.423Z,1.87
2018-06-29T00:26:52.287Z,1.60
2018-06-29T00:29:19.919Z,1.73
2018-06-29T00:31:47.489Z,1.67
2018-06-29T00:34:15.267Z,1.60
2018-06-29T00:36:42.914Z,1.80
2018-06-29T00:39:10.440Z,1.80
2018-06-29T00:41:38.096Z,1.73
2018-06-29T00:44:05.769Z,1.70
2018-06-29T00:46:33.709Z,1.73
2018-06-29T00:49:01.640Z,1.80
2018-06-29T00:51:29.388Z,1.73
2018-06-29T00:53:56.976Z,1.63
2018-06-29T00:56:24.639Z,1.93
2018-06-29T00:58:52.332Z,1.67
2018-06-29T01:01:19.898Z,1.70
2018-06-29T01:03:47.480Z,1.80
2018-06-29T01:06:15.111Z,1.87
2018-06-29T01:08:42.808Z,1.60
2018-06-29T01:11:10.436Z,1.93
2018-06-29T01:13:38.081Z,1.70
2018-06-29T01:16:05.760Z,1.80
2018-06-29T01:18:38.238Z,1.77
2018-06-29T01:21:10.924Z,1.80
2018-06-29T01:23:38.669Z,1.90
2018-06-29T01:26:06.341Z,1.90
2018-06-29T01:28:33.891Z,1.93
2018-06-29T01:31:01.579Z,1.87
2018-06-29T01:33:29.167Z,2.00
2018-06-29T01:35:56.803Z,1.87
2018-06-29T01:38:24.472Z,2.00
2018-06-29T01:40:52.170Z,1.90
2018-06-29T01:43:19.775Z,2.10
2018-06-29T01:45:47.313Z,1.90
2018-06-29T01:48:14.882Z,1.70
2018-06-29T01:50:42.522Z,1.90
2018-06-29T01:53:10.474Z,2.07
2018-06-29T01:55:38.036Z,2.13
2018-06-29T01:58:06.139Z,1.90
2018-06-29T02:00:33.694Z,2.00
2018-06-29T02:03:01.343Z,1.80
2018-06-29T02:05:28.983Z,1.90
2018-06-29T02:07:56.728Z,2.07
2018-06-29T02:10:24.327Z,1.80
2018-06-29T02:12:51.900Z,2.00
2018-06-29T02:15:19.524Z,1.70
2018-06-29T02:17:47.163Z,2.00
2018-06-29T02:20:14.794Z,2.20
2018-06-29T02:22:42.520Z,2.00
2018-06-29T02:25:10.757Z,2.30
2018-06-29T02:27:39.011Z,2.40
2018-06-29T02:30:07.366Z,2.20
2018-06-29T02:32:35.105Z,2.50
2018-06-29T02:35:02.952Z,2.03
2018-06-29T02:37:30.656Z,2.20
2018-06-29T02:39:58.216Z,2.30
2018-06-29T02:42:26.030Z,2.50
2018-06-29T02:44:53.630Z,2.50
2018-06-29T02:47:21.437Z,2.17
2018-06-29T02:49:49.123Z,2.60
2018-06-29T02:52:16.799Z,2.47
2018-06-29T02:54:44.390Z,2.70
2018-06-29T02:57:12.337Z,2.40
2018-06-29T02:59:40.025Z,2.33
2018-06-29T03:02:07.697Z,2.53
2018-06-29T03:04:35.497Z,2.70
2018-06-29T03:07:03.132Z,2.57
2018-06-29T03:09:30.787Z,2.57
2018-06-29T03:11:58.378Z,2.60
2018-06-29T03:14:25.956Z,2.97
2018-06-29T03:16:53.560Z,2.60
2018-06-29T03:19:21.257Z,2.57
2018-06-29T03:21:49.052Z,2.60
2018-06-29T03:24:16.766Z,2.73
2018-06-29T03:26:44.428Z,2.73
2018-06-29T03:29:12.079Z,2.70
2018-06-29T03:31:39.682Z,2.90
2018-06-29T03:34:07.649Z,2.83
2018-06-29T03:36:36.404Z,2.60
2018-06-29T03:39:06.316Z,3.10
2018-06-29T03:41:33.908Z,2.67
2018-06-29T03:44:01.534Z,2.93
2018-06-29T03:46:29.171Z,3.20
2018-06-29T03:48:56.764Z,3.33
2018-06-29T03:51:24.383Z,2.60
2018-06-29T03:53:52.064Z,3.00
2018-06-29T03:56:19.723Z,2.97
2018-06-29T03:58:47.279Z,3.00
2018-06-29T04:01:14.847Z,2.90
2018-06-29T04:03:42.447Z,2.90
2018-06-29T04:06:10.063Z,3.07
2018-06-29T04:08:37.765Z,3.00
2018-06-29T04:11:06.838Z,2.83
2018-06-29T04:13:34.487Z,3.10
2018-06-29T04:16:02.073Z,3.00
2018-06-29T04:18:29.627Z,3.43
2018-06-29T04:20:57.165Z,3.07
2018-06-29T04:23:24.768Z,3.00
2018-06-29T04:25:52.366Z,3.30
2018-06-29T04:28:20.016Z,3.00
2018-06-29T04:30:47.720Z,2.80
2018-06-29T04:33:15.249Z,3.27
2018-06-29T04:35:42.984Z,3.60
2018-06-29T04:38:10.932Z,3.17
2018-06-29T04:40:38.568Z,3.20
2018-06-29T04:43:06.149Z,3.13
2018-06-29T04:45:33.700Z,3.03
2018-06-29T04:48:01.392Z,3.70
2018-06-29T04:50:28.951Z,3.10
2018-06-29T04:52:56.548Z,3.33
2018-06-29T04:55:24.347Z,3.60
2018-06-29T04:57:51.935Z,3.20
2018-06-29T05:00:19.523Z,3.40
2018-06-29T05:02:47.196Z,3.43
2018-06-29T05:05:15.029Z,3.37
2018-06-29T05:07:42.765Z,3.53
2018-06-29T05:10:10.351Z,3.40
2018-06-29T05:12:37.908Z,3.47
2018-06-29T05:15:05.615Z,3.63
2018-06-29T05:17:33.162Z,3.37
2018-06-29T05:20:00.908Z,4.10
2018-06-29T05:22:28.431Z,3.50
2018-06-29T05:24:56.120Z,3.50
2018-06-29T05:27:23.736Z,3.50
2018-06-29T05:29:51.627Z,3.40
2018-06-29T05:32:19.276Z,3.70
2018-06-29T05:34:46.879Z,3.70
2018-06-29T05:37:14.612Z,3.57
2018-06-29T05:39:42.186Z,4.00
2018-06-29T05:42:09.854Z,3.70
2018-06-29T05:44:37.482Z,3.60
2018-06-29T05:47:05.236Z,3.70
2018-06-29T05:49:32.732Z,3.60
2018-06-29T05:52:00.323Z,3.47
2018-06-29T05:54:27.897Z,3.20
2018-06-29T05:56:55.505Z,3.60
2018-06-29T05:59:23.169Z,3.27
2018-06-29T06:01:50.857Z,3.50
2018-06-29T06:04:18.449Z,3.43
2018-06-29T06:06:46.007Z,3.90
2018-06-29T06:09:13.573Z,3.57
2018-06-29T06:11:41.189Z,3.80
2018-06-29T06:14:08.814Z,3.80
2018-06-29T06:16:36.393Z,3.90
2018-06-29T06:19:15.619Z,3.77
2018-06-29T06:21:43.215Z,3.67
2018-06-29T06:24:10.910Z,3.53
2018-06-29T06:26:38.570Z,3.40
2018-06-29T06:29:06.364Z,3.63
2018-06-29T06:31:33.940Z,3.67
2018-06-29T06:34:02.233Z,3.73
2018-06-29T06:36:29.828Z,3.60
2018-06-29T06:38:57.508Z,3.40
2018-06-29T06:41:25.140Z,3.43
2018-06-29T06:43:53.013Z,3.30
2018-06-29T06:46:20.631Z,3.20
2018-06-29T06:48:48.178Z,3.00
2018-06-29T06:51:15.771Z,3.00
2018-06-29T06:53:43.409Z,3.17
2018-06-29T06:56:10.961Z,2.97
2018-06-29T06:58:38.543Z,2.60
2018-06-29T07:01:06.328Z,2.60
2018-06-29T07:03:34.365Z,2.50
2018-06-29T07:06:02.869Z,2.90
2018-06-29T07:08:30.463Z,2.60
2018-06-29T07:10:59.468Z,2.52
2018-06-29T07:13:27.074Z,2.40
2018-06-29T07:15:55.090Z,2.85
2018-06-29T07:18:24.087Z,2.00
2018-06-29T07:20:51.679Z,2.08
2018-06-29T07:23:19.316Z,2.25
2018-06-29T07:25:46.973Z,2.10
2018-06-29T07:28:14.607Z,2.33
2018-06-29T07:30:42.191Z,2.15
2018-06-29T07:33:09.889Z,2.15
2018-06-29T07:35:37.703Z,2.00
2018-06-29T07:38:05.365Z,2.00
2018-06-29T07:40:33.026Z,1.80
2018-06-29T07:43:00.606Z,2.10
2018-06-29T07:45:28.198Z,1.95
2018-06-29T07:47:55.781Z,2.00
2018-06-29T07:50:23.413Z,1.90
2018-06-29T07:52:51.093Z,1.72
2018-06-29T07:55:19.928Z,1.52
2018-06-29T07:57:47.712Z,1.80
2018-06-29T08:00:15.453Z,1.80
2018-06-29T08:02:43.325Z,1.40
2018-06-29T08:05:11.015Z,1.95
2018-06-29T08:07:38.824Z,1.90
2018-06-29T08:10:06.509Z,1.67
2018-06-29T08:12:34.118Z,1.67
2018-06-29T08:15:01.712Z,1.25
2018-06-29T08:17:32.409Z,1.35
2018-06-29T08:20:00.010Z,1.47
2018-06-29T08:22:28.030Z,1.15
2018-06-29T08:25:01.108Z,1.60
2018-06-29T08:27:28.717Z,1.30
2018-06-29T08:29:56.301Z,1.40
2018-06-29T08:32:23.905Z,1.70
2018-06-29T08:34:51.538Z,1.37
2018-06-29T08:37:19.226Z,1.42
2018-06-29T08:39:47.006Z,1.30
2018-06-29T08:42:14.603Z,1.42
2018-06-29T08:44:42.204Z,1.22
2018-06-29T08:47:10.032Z,1.45
2018-06-29T08:49:37.608Z,1.40
2018-06-29T08:52:05.332Z,1.70
2018-06-29T08:54:32.871Z,1.55
2018-06-29T08:57:00.472Z,1.57
2018-06-29T08:59:28.161Z,1.40
2018-06-29T09:01:55.840Z,1.50
2018-06-29T09:04:23.571Z,1.50
2018-06-29T09:06:51.300Z,1.50
2018-06-29T09:09:18.869Z,1.37
2018-06-29T09:11:46.461Z,1.30
2018-06-29T09:14:14.005Z,1.42
2018-06-29T09:16:41.669Z,1.50
2018-06-29T09:19:09.480Z,1.57
2018-06-29T09:21:37.109Z,1.40
2018-06-29T09:24:04.918Z,1.40
2018-06-29T09:26:32.708Z,1.70
2018-06-29T09:29:00.384Z,1.30
2018-06-29T09:31:28.002Z,1.47
2018-06-29T09:33:55.602Z,1.50
2018-06-29T09:36:23.310Z,1.60
2018-06-29T09:38:50.868Z,1.60
2018-06-29T09:41:18.468Z,1.55
2018-06-29T09:43:47.089Z,1.70
2018-06-29T09:46:14.700Z,1.70
2018-06-29T09:48:42.337Z,1.55
2018-06-29T09:51:09.920Z,1.50
2018-06-29T09:53:37.554Z,1.80
2018-06-29T09:56:05.106Z,1.60
2018-06-29T09:58:34.490Z,1.60
2018-06-29T10:01:02.471Z,1.40
2018-06-29T10:03:30.209Z,1.77
2018-06-29T10:05:58.944Z,1.40
2018-06-29T10:08:26.616Z,1.50
2018-06-29T10:10:54.214Z,1.50
2018-06-29T10:13:21.788Z,1.47
2018-06-29T10:15:49.460Z,1.70
2018-06-29T10:18:17.076Z,1.50
2018-06-29T10:20:44.720Z,1.60
2018-06-29T10:23:12.582Z,1.60
2018-06-29T10:25:40.155Z,1.70
2018-06-29T10:28:07.900Z,1.52
2018-06-29T10:30:35.475Z,1.37
2018-06-29T10:33:03.162Z,1.30
2018-06-29T10:35:30.761Z,1.50
2018-06-29T10:37:58.368Z,1.40
2018-06-29T10:40:25.958Z,1.50
2018-06-29T10:42:53.728Z,1.47
2018-06-29T10:45:21.860Z,1.57
2018-06-29T10:47:49.579Z,1.40
2018-06-29T10:50:17.145Z,1.50
2018-06-29T10:52:45.401Z,1.50
2018-06-29T10:55:13.022Z,1.50
2018-06-29T10:57:40.744Z,1.45
2018-06-29T11:00:08.408Z,1.70
2018-06-29T11:02:35.962Z,1.50
2018-06-29T11:05:03.642Z,1.50
2018-06-29T11:07:31.218Z,1.47
2018-06-29T11:09:58.821Z,1.60
2018-06-29T11:12:26.426Z,1.70
2018-06-29T11:14:54.549Z,1.60
2018-06-29T11:17:22.136Z,1.77
2018-06-29T11:19:49.795Z,1.60
2018-06-29T11:22:17.404Z,1.77
2018-06-29T11:24:45.006Z,1.80
2018-06-29T11:27:12.616Z,1.70
2018-06-29T11:29:40.163Z,1.72
2018-06-29T11:32:08.156Z,1.55
2018-06-29T11:34:35.726Z,1.55
2018-06-29T11:37:03.310Z,1.60
2018-06-29T11:39:30.883Z,1.40
2018-06-29T11:41:58.505Z,1.50
2018-06-29T11:44:26.155Z,1.70
2018-06-29T11:46:53.757Z,1.65
2018-06-29T11:49:21.381Z,1.60
2018-06-29T11:51:49.035Z,1.70
2018-06-29T11:54:16.616Z,1.50
2018-06-29T11:56:44.212Z,1.70
2018-06-29T11:59:11.819Z,1.65
2018-06-29T12:01:39.377Z,1.35
2018-06-29T12:04:06.944Z,1.60
2018-06-29T12:06:34.679Z,1.40
2018-06-29T12:09:02.365Z,1.60
2018-06-29T12:11:29.955Z,1.77
2018-06-29T12:13:57.587Z,1.70
2018-06-29T12:16:25.248Z,1.70
2018-06-29T12:18:52.830Z,1.40
2018-06-29T12:21:20.391Z,1.62
2018-06-29T12:23:48.062Z,1.50
2018-06-29T12:26:15.700Z,1.60
2018-06-29T12:28:43.328Z,1.50
2018-06-29T12:31:11.023Z,1.70
2018-06-29T12:33:38.551Z,1.80
2018-06-29T12:36:06.164Z,1.60
2018-06-29T12:38:33.768Z,1.70
2018-06-29T12:41:04.095Z,1.57
2018-06-29T12:43:31.763Z,1.62
2018-06-29T12:46:00.255Z,1.72
2018-06-29T12:48:30.046Z,1.57
2018-06-29T12:50:57.967Z,1.87
2018-06-29T12:53:25.557Z,1.80
2018-06-29T12:55:53.175Z,1.87
2018-06-29T12:58:20.743Z,1.72
2018-06-29T13:00:48.341Z,1.77
2018-06-29T13:03:16.765Z,1.55
2018-06-29T13:05:44.507Z,1.70
2018-06-29T13:08:12.193Z,1.57
2018-06-29T13:10:39.816Z,1.47
2018-06-29T13:13:07.427Z,1.62
2018-06-29T13:15:35.016Z,1.50
2018-06-29T13:18:02.894Z,1.70
2018-06-29T13:20:30.503Z,1.32
2018-06-29T13:22:58.072Z,1.37
2018-06-29T13:25:25.879Z,1.60
2018-06-29T13:27:53.464Z,1.70
2018-06-29T13:30:21.143Z,1.90
2018-06-29T13:32:48.701Z,1.60
2018-06-29T13:35:16.271Z,1.72
2018-06-29T13:37:43.952Z,1.70
2018-06-29T13:40:11.560Z,1.80
2018-06-29T13:42:39.230Z,1.87
2018-06-29T13:45:06.918Z,1.50
2018-06-29T13:47:34.601Z,1.60
2018-06-29T13:50:05.519Z,1.72
2018-06-29T13:52:33.302Z,1.55
2018-06-29T13:55:00.918Z,2.08
2018-06-29T13:57:28.556Z,1.95
2018-06-29T13:59:56.213Z,1.70
2018-06-29T14:02:23.805Z,2.15
2018-06-29T14:04:51.364Z,1.72
2018-06-29T14:07:19.038Z,1.90
2018-06-29T14:09:46.656Z,1.80
2018-06-29T14:12:14.455Z,1.60
2018-06-29T14:14:42.119Z,1.77
2018-06-29T14:17:09.769Z,2.02
2018-06-29T14:19:37.339Z,2.10
2018-06-29T14:22:05.155Z,2.42
2018-06-29T14:24:32.733Z,2.25
2018-06-29T14:27:00.324Z,3.83
2018-06-29T14:29:27.936Z,2.40
2018-06-29T14:31:55.525Z,1.70
2018-06-29T14:34:23.279Z,1.80
2018-06-29T14:36:50.882Z,1.90
2018-06-29T14:39:18.920Z,1.90
2018-06-29T14:41:46.611Z,1.80
2018-06-29T14:44:14.721Z,1.80
2018-06-29T14:46:42.428Z,1.80
2018-06-29T14:49:09.992Z,1.77
2018-06-29T14:51:37.648Z,1.67
2018-06-29T14:54:05.347Z,1.60
2018-06-29T14:56:33.163Z,1.80
2018-06-29T14:59:00.752Z,1.60
2018-06-29T15:01:28.414Z,1.70
2018-06-29T15:03:56.029Z,1.60
2018-06-29T15:06:23.620Z,1.80
2018-06-29T15:08:51.889Z,2.07
2018-06-29T15:11:20.984Z,1.80
2018-06-29T15:13:48.818Z,8.50
2018-06-29T15:16:17.017Z,3.40
2018-06-29T15:18:45.326Z,1.93
2018-06-29T15:21:13.238Z,2.00
2018-06-29T15:23:41.119Z,2.00
2018-06-29T15:26:09.109Z,1.87
2018-06-29T15:28:36.849Z,1.70
2018-06-29T15:31:06.914Z,1.70
2018-06-29T15:33:34.447Z,2.22
2018-06-29T15:36:02.043Z,2.10
2018-06-29T15:38:29.683Z,1.57
2018-06-29T15:40:57.351Z,1.90
2018-06-29T15:43:24.963Z,3.00
2018-06-29T15:45:52.664Z,1.90
2018-06-29T15:48:20.291Z,2.10
2018-06-29T15:50:47.865Z,2.63
2018-06-29T15:53:15.447Z,2.10
2018-06-29T15:55:43.029Z,2.00
2018-06-29T15:58:10.667Z,1.97
2018-06-29T16:00:38.197Z,2.07
2018-06-29T16:03:06.144Z,2.00
2018-06-29T16:05:33.797Z,1.90
2018-06-29T16:08:01.449Z,2.27
2018-06-29T16:10:29.103Z,2.10
2018-06-29T16:12:56.732Z,1.73
2018-06-29T16:15:24.428Z,1.90
2018-06-29T16:17:51.927Z,2.03
2018-06-29T16:20:19.504Z,2.00
2018-06-29T16:22:47.215Z,2.00
2018-06-29T16:25:14.788Z,1.70
2018-06-29T16:27:42.395Z,1.97
2018-06-29T16:30:10.086Z,2.00
2018-06-29T16:32:37.724Z,1.97
2018-06-29T16:35:05.604Z,1.97
2018-06-29T16:37:33.636Z,1.87
2018-06-29T16:40:01.233Z,2.20
2018-06-29T16:42:28.689Z,2.60
2018-06-29T16:44:56.167Z,2.40
2018-06-29T16:47:24.294Z,2.13
2018-06-29T16:49:51.895Z,2.10
2018-06-29T16:52:19.510Z,2.17
2018-06-29T16:54:47.070Z,2.03
2018-06-29T16:57:14.819Z,2.20
2018-06-29T16:59:42.467Z,2.30
2018-06-29T17:02:10.162Z,2.03
2018-06-29T17:04:37.782Z,2.20
2018-06-29T17:07:05.375Z,2.13
2018-06-29T17:09:32.987Z,2.00
2018-06-29T17:12:00.607Z,1.90
2018-06-29T17:14:28.283Z,1.93
2018-06-29T17:16:55.948Z,2.13
2018-06-29T17:19:23.489Z,2.00
2018-06-29T17:21:51.335Z,2.23
2018-06-29T17:24:19.182Z,2.53
2018-06-29T17:26:46.901Z,2.10
2018-06-29T17:29:14.505Z,1.90
2018-06-29T17:31:42.135Z,1.97
2018-06-29T17:34:09.903Z,1.90
2018-06-29T17:36:37.418Z,1.80
2018-06-29T17:39:07.300Z,1.97
2018-06-29T17:41:34.859Z,2.07
2018-06-29T17:44:02.542Z,1.70
2018-06-29T17:46:30.236Z,1.67
2018-06-29T17:48:58.034Z,1.50
2018-06-29T17:51:25.641Z,1.80
2018-06-29T17:53:53.214Z,1.60
2018-06-29T17:56:20.898Z,1.73
2018-06-29T17:58:48.491Z,1.80
2018-06-29T18:01:16.152Z,1.80
2018-06-29T18:03:43.735Z,1.80
2018-06-29T18:06:11.400Z,1.40
2018-06-29T18:08:39.025Z,1.60
2018-06-29T18:11:09.190Z,1.67
2018-06-29T18:13:37.017Z,2.10
2018-06-29T18:16:06.753Z,1.50
2018-06-29T18:18:36.947Z,1.67
2018-06-29T18:21:04.683Z,1.93
2018-06-29T18:23:32.365Z,1.80
2018-06-29T18:25:59.883Z,1.70
2018-06-29T18:28:27.491Z,1.73
2018-06-29T18:30:55.094Z,1.73
2018-06-29T18:33:22.898Z,1.80
2018-06-29T18:35:50.654Z,1.70
2018-06-29T18:38:18.378Z,1.70
2018-06-29T18:40:46.122Z,1.70
2018-06-29T18:43:13.743Z,2.07
2018-06-29T18:45:41.473Z,1.83
2018-06-29T18:48:09.088Z,2.07
2018-06-29T18:50:37.023Z,2.00
2018-06-29T18:53:04.657Z,2.50
2018-06-29T18:55:32.365Z,2.60
2018-06-29T18:58:00.145Z,1.80
2018-06-29T19:00:27.848Z,1.83
2018-06-29T19:02:55.555Z,2.10
2018-06-29T19:05:23.156Z,2.03
2018-06-29T19:07:51.177Z,2.00
2018-06-29T19:10:18.821Z,1.77
2018-06-29T19:12:46.627Z,1.83
2018-06-29T19:15:14.280Z,1.83
2018-06-29T19:17:41.895Z,1.87
2018-06-29T19:20:09.592Z,1.90
2018-06-29T19:22:37.306Z,2.03
2018-06-29T19:25:05.006Z,2.20
2018-06-29T19:27:33.157Z,1.80
2018-06-29T19:30:06.988Z,2.20
2018-06-29T19:32:36.308Z,2.20
2018-06-29T19:35:04.281Z,2.30
2018-06-29T19:37:32.094Z,2.40
2018-06-29T19:39:59.884Z,2.37
2018-06-29T19:42:27.521Z,2.43
2018-06-29T19:44:55.103Z,2.20
2018-06-29T19:47:22.804Z,2.30
2018-06-29T19:49:50.701Z,2.73
2018-06-29T19:52:18.394Z,3.63
2018-06-29T19:54:45.987Z,3.23
2018-06-29T19:57:13.574Z,3.20
2018-06-29T19:59:41.244Z,3.00
2018-06-29T20:02:09.099Z,3.00
2018-06-29T20:04:36.880Z,3.03
2018-06-29T20:07:04.597Z,2.87
2018-06-29T20:09:32.182Z,3.10
2018-06-29T20:11:59.775Z,3.30
2018-06-29T20:14:27.677Z,3.33
2018-06-29T20:16:56.664Z,3.10
2018-06-29T20:19:24.285Z,2.90
2018-06-29T20:21:51.959Z,3.30
2018-06-29T20:24:19.503Z,3.40
2018-06-29T20:26:47.128Z,3.40
2018-06-29T20:29:14.851Z,3.43
2018-06-29T20:31:42.670Z,3.23
2018-06-29T20:34:10.291Z,3.67
2018-06-29T20:36:38.050Z,3.53
2018-06-29T20:39:08.645Z,3.57
2018-06-29T20:41:36.248Z,3.40
2018-06-29T20:44:03.905Z,3.23
2018-06-29T20:46:31.760Z,3.40
2018-06-29T20:48:59.463Z,3.50
2018-06-29T20:51:27.054Z,3.33
2018-06-29T20:53:54.764Z,3.67
2018-06-29T20:56:22.243Z,3.57
2018-06-29T20:58:50.106Z,3.43
2018-06-29T21:01:17.747Z,3.40
2018-06-29T21:03:46.230Z,4.10
2018-06-29T21:06:13.954Z,4.00
2018-06-29T21:08:41.580Z,3.80
2018-06-29T21:11:12.427Z,3.83
2018-06-29T21:13:40.056Z,3.60
2018-06-29T21:16:07.643Z,3.63
2018-06-29T21:18:35.307Z,3.30
2018-06-29T21:21:02.939Z,3.20
2018-06-29T21:23:30.572Z,3.50
2018-06-29T21:25:58.151Z,3.40
2018-06-29T21:28:26.768Z,3.57
2018-06-29T21:30:54.427Z,3.30
2018-06-29T21:33:22.009Z,3.70
2018-06-29T21:35:49.707Z,3.53
2018-06-29T21:38:17.298Z,3.00
2018-06-29T21:40:45.342Z,3.70
2018-06-29T21:43:12.966Z,3.50
2018-06-29T21:45:40.614Z,3.43
2018-06-29T21:48:08.266Z,3.67
2018-06-29T21:50:35.873Z,3.77
2018-06-29T21:53:03.481Z,3.90
2018-06-29T21:55:31.232Z,3.83
2018-06-29T21:57:58.984Z,3.60
2018-06-29T22:00:32.396Z,3.73
2018-06-29T22:03:04.641Z,3.57
2018-06-29T22:05:32.248Z,3.43
2018-06-29T22:07:59.999Z,3.70
2018-06-29T22:10:27.809Z,3.90
2018-06-29T22:12:55.512Z,4.10
2018-06-29T22:15:24.326Z,4.00
2018-06-29T22:17:52.596Z,3.90
2018-06-29T22:20:20.628Z,4.00
2018-06-29T22:22:48.266Z,4.27
2018-06-29T22:25:15.995Z,3.90
2018-06-29T22:27:43.599Z,3.87
2018-06-29T22:30:11.387Z,3.90
2018-06-29T22:32:38.952Z,4.07
2018-06-29T22:35:06.568Z,3.77
2018-06-29T22:37:34.226Z,3.90
2018-06-29T22:40:01.894Z,4.40
2018-06-29T22:42:29.548Z,3.93
2018-06-29T22:44:57.233Z,3.90
2018-06-29T22:47:24.931Z,3.90
2018-06-29T22:49:52.667Z,3.67
2018-06-29T22:52:20.295Z,4.10
2018-06-29T22:54:47.887Z,3.87
2018-06-29T22:57:15.497Z,4.30
2018-06-29T22:59:43.422Z,4.20
2018-06-29T23:02:11.261Z,3.77
2018-06-29T23:04:38.868Z,3.80
2018-06-29T23:07:06.642Z,4.20
2018-06-29T23:09:34.587Z,4.00
2018-06-29T23:12:02.286Z,4.10
2018-06-29T23:14:29.920Z,4.47
2018-06-29T23:16:57.589Z,4.20
2018-06-29T23:19:25.240Z,4.60
2018-06-29T23:21:52.888Z,4.00
2018-06-29T23:24:21.412Z,4.30
2018-06-29T23:26:48.886Z,3.87
2018-06-29T23:29:16.488Z,4.30
2018-06-29T23:31:44.263Z,4.67
2018-06-29T23:34:12.010Z,4.37
2018-06-29T23:36:39.820Z,5.03
2018-06-29T23:39:08.716Z,4.90
2018-06-29T23:41:36.412Z,4.50
2018-06-29T23:44:04.017Z,5.10
2018-06-29T23:46:31.623Z,5.30
2018-06-29T23:48:59.254Z,4.60
2018-06-29T23:51:26.812Z,4.67
2018-06-29T23:53:54.370Z,5.10
2018-06-29T23:56:21.930Z,5.43
2018-06-29T23:58:49.754Z,4.90
